createdAt,value
2018-06-30T00:00:29.558Z,1000.8
2018-06-30T00:01:30.909Z,1000.8
2018-06-30T00:02:32.277Z,1000.8
2018-06-30T00:03:33.642Z,1000.8
2018-06-30T00:04:35.011Z,1000.8
2018-06-30T00:05:36.384Z,1000.8
2018-06-30T00:06:37.746Z,1000.8
2018-06-30T00:07:39.119Z,1000.8
2018-06-30T00:08:40.488Z,1000.8
2018-06-30T00:09:41.854Z,1000.8
2018-06-30T00:10:43.227Z,1000.8
2018-06-30T00:11:44.588Z,1000.8
2018-06-30T00:12:45.954Z,1000.8
2018-06-30T00:13:47.326Z,1000.8
2018-06-30T00:14:48.683Z,1000.7
2018-06-30T00:15:50.047Z,1000.8
2018-06-30T00:16:51.434Z,1000.8
2018-06-30T00:17:52.812Z,1000.7
2018-06-30T00:18:54.177Z,1000.7
2018-06-30T00:19:55.544Z,1000.7
2018-06-30T00:20:57.040Z,1000.8
2018-06-30T00:21:58.394Z,1000.7
2018-06-30T00:22:59.761Z,1000.7
2018-06-30T00:24:01.124Z,1000.7
2018-06-30T00:25:02.498Z,1000.7
2018-06-30T00:26:03.859Z,1000.7
2018-06-30T00:27:05.224Z,1000.8
2018-06-30T00:28:06.591Z,1000.8
2018-06-30T00:29:07.959Z,1000.7
2018-06-30T00:30:09.333Z,1000.7
2018-06-30T00:31:10.722Z,1000.7
2018-06-30T00:32:12.059Z,1000.7
2018-06-30T00:33:14.323Z,1000.7
2018-06-30T00:34:15.718Z,1000.7
2018-06-30T00:35:17.120Z,1000.7
2018-06-30T00:36:18.494Z,1000.7
2018-06-30T00:37:19.862Z,1000.7
2018-06-30T00:38:21.268Z,1000.6
2018-06-30T00:39:22.569Z,1000.6
2018-06-30T00:40:23.944Z,1000.6
2018-06-30T00:41:25.294Z,1000.6
2018-06-30T00:42:26.698Z,1000.6
2018-06-30T00:43:28.058Z,1000.6
2018-06-30T00:44:29.419Z,1000.6
2018-06-30T00:45:30.802Z,1000.6
2018-06-30T00:46:32.179Z,1000.6
2018-06-30T00:47:33.543Z,1000.6
2018-06-30T00:48:34.922Z,1000.6
2018-06-30T00:49:36.243Z,1000.6
2018-06-30T00:50:37.605Z,1000.6
2018-06-30T00:51:38.984Z,1000.6
2018-06-30T00:52:40.350Z,1000.6
2018-06-30T00:53:41.707Z,1000.6
2018-06-30T00:54:43.085Z,1000.6
2018-06-30T00:55:44.463Z,1000.6
2018-06-30T00:56:45.823Z,1000.6
2018-06-30T00:57:47.193Z,1000.5
2018-06-30T00:58:48.611Z,1000.6
2018-06-30T00:59:49.932Z,1000.6
2018-06-30T01:00:51.302Z,1000.6
2018-06-30T01:01:52.658Z,1000.5
2018-06-30T01:02:54.024Z,1000.6
2018-06-30T01:03:55.388Z,1000.5
2018-06-30T01:04:56.748Z,1000.6
2018-06-30T01:05:58.127Z,1000.6
2018-06-30T01:06:59.489Z,1000.6
2018-06-30T01:08:00.862Z,1000.6
2018-06-30T01:09:02.224Z,1000.6
2018-06-30T01:10:03.579Z,1000.6
2018-06-30T01:11:04.948Z,1000.6
2018-06-30T01:12:06.312Z,1000.6
2018-06-30T01:13:07.675Z,1000.6
2018-06-30T01:14:09.048Z,1000.6
2018-06-30T01:15:10.413Z,1000.6
2018-06-30T01:16:11.787Z,1000.6
2018-06-30T01:17:13.157Z,1000.6
2018-06-30T01:18:14.537Z,1000.6
2018-06-30T01:19:15.909Z,1000.6
2018-06-30T01:20:17.276Z,1000.6
2018-06-30T01:21:18.633Z,1000.6
2018-06-30T01:22:20.003Z,1000.6
2018-06-30T01:23:21.367Z,1000.6
2018-06-30T01:24:22.739Z,1000.6
2018-06-30T01:25:24.108Z,1000.6
2018-06-30T01:26:25.465Z,1000.6
2018-06-30T01:27:26.844Z,1000.6
2018-06-30T01:28:28.228Z,1000.6
2018-06-30T01:29:29.589Z,1000.6
2018-06-30T01:30:30.952Z,1000.6
2018-06-30T01:31:32.334Z,1000.7
2018-06-30T01:32:33.697Z,1000.7
2018-06-30T01:33:35.063Z,1000.7
2018-06-30T01:34:36.432Z,1000.7
2018-06-30T01:35:37.805Z,1000.8
2018-06-30T01:36:39.160Z,1000.8
2018-06-30T01:37:40.530Z,1000.8
2018-06-30T01:38:41.889Z,1000.8
2018-06-30T01:39:43.259Z,1000.8
2018-06-30T01:40:44.633Z,1000.8
2018-06-30T01:41:46.005Z,1000.8
2018-06-30T01:42:47.380Z,1000.8
2018-06-30T01:43:48.753Z,1000.8
2018-06-30T01:44:50.114Z,1000.8
2018-06-30T01:45:51.482Z,1000.8
2018-06-30T01:46:52.838Z,1000.7
2018-06-30T01:47:54.203Z,1000.7
2018-06-30T01:48:55.573Z,1000.7
2018-06-30T01:49:56.931Z,1000.7
2018-06-30T01:50:58.303Z,1000.7
2018-06-30T01:51:59.681Z,1000.8
2018-06-30T01:53:01.038Z,1000.7
2018-06-30T01:54:02.408Z,1000.8
2018-06-30T01:55:03.765Z,1000.7
2018-06-30T01:56:05.136Z,1000.7
2018-06-30T01:57:06.507Z,1000.7
2018-06-30T01:58:07.868Z,1000.7
2018-06-30T01:59:09.233Z,1000.7
2018-06-30T02:00:10.584Z,1000.7
2018-06-30T02:01:11.949Z,1000.7
2018-06-30T02:02:13.313Z,1000.6
2018-06-30T02:03:14.665Z,1000.7
2018-06-30T02:04:16.059Z,1000.7
2018-06-30T02:05:17.409Z,1000.7
2018-06-30T02:06:18.775Z,1000.7
2018-06-30T02:07:20.143Z,1000.7
2018-06-30T02:08:21.510Z,1000.7
2018-06-30T02:09:22.867Z,1000.7
2018-06-30T02:10:24.224Z,1000.7
2018-06-30T02:11:25.589Z,1000.6
2018-06-30T02:12:26.947Z,1000.6
2018-06-30T02:13:28.315Z,1000.7
2018-06-30T02:14:29.669Z,1000.7
2018-06-30T02:15:31.063Z,1000.7
2018-06-30T02:16:32.420Z,1000.7
2018-06-30T02:17:33.854Z,1000.7
2018-06-30T02:18:35.178Z,1000.7
2018-06-30T02:19:36.528Z,1000.7
2018-06-30T02:20:37.880Z,1000.7
2018-06-30T02:21:39.249Z,1000.7
2018-06-30T02:22:40.608Z,1000.7
2018-06-30T02:23:41.982Z,1000.7
2018-06-30T02:24:43.338Z,1000.7
2018-06-30T02:25:44.712Z,1000.6
2018-06-30T02:26:46.083Z,1000.7
2018-06-30T02:27:47.449Z,1000.7
2018-06-30T02:28:48.824Z,1000.7
2018-06-30T02:29:50.183Z,1000.7
2018-06-30T02:30:51.544Z,1000.7
2018-06-30T02:31:52.908Z,1000.7
2018-06-30T02:32:54.270Z,1000.7
2018-06-30T02:33:55.640Z,1000.6
2018-06-30T02:34:57.004Z,1000.7
2018-06-30T02:35:58.375Z,1000.7
2018-06-30T02:36:59.731Z,1000.7
2018-06-30T02:38:01.099Z,1000.7
2018-06-30T02:39:02.545Z,1000.7
2018-06-30T02:40:03.849Z,1000.7
2018-06-30T02:41:05.202Z,1000.7
2018-06-30T02:42:06.565Z,1000.7
2018-06-30T02:43:07.923Z,1000.7
2018-06-30T02:44:09.299Z,1000.7
2018-06-30T02:45:10.675Z,1000.7
2018-06-30T02:46:12.037Z,1000.7
2018-06-30T02:47:13.905Z,1000.7
2018-06-30T02:48:15.292Z,1000.8
2018-06-30T02:49:16.649Z,1000.8
2018-06-30T02:50:18.027Z,1000.7
2018-06-30T02:51:19.377Z,1000.7
2018-06-30T02:52:20.735Z,1000.8
2018-06-30T02:53:22.105Z,1000.8
2018-06-30T02:54:23.470Z,1000.8
2018-06-30T02:55:24.823Z,1000.7
2018-06-30T02:56:26.184Z,1000.8
2018-06-30T02:57:27.559Z,1000.8
2018-06-30T02:58:28.914Z,1000.8
2018-06-30T02:59:30.274Z,1000.8
2018-06-30T03:00:31.634Z,1000.9
2018-06-30T03:01:33.009Z,1000.9
2018-06-30T03:02:34.365Z,1000.8
2018-06-30T03:03:35.729Z,1000.8
2018-06-30T03:04:37.092Z,1000.8
2018-06-30T03:05:38.460Z,1000.8
2018-06-30T03:06:39.830Z,1000.8
2018-06-30T03:07:41.414Z,1000.8
2018-06-30T03:08:42.726Z,1000.9
2018-06-30T03:09:44.121Z,1000.8
2018-06-30T03:10:45.491Z,1000.9
2018-06-30T03:11:46.850Z,1000.9
2018-06-30T03:12:48.212Z,1000.9
2018-06-30T03:13:49.583Z,1000.9
2018-06-30T03:14:50.944Z,1000.9
2018-06-30T03:15:52.314Z,1000.8
2018-06-30T03:16:53.680Z,1000.9
2018-06-30T03:17:55.052Z,1000.9
2018-06-30T03:18:56.409Z,1000.9
2018-06-30T03:19:57.776Z,1000.9
2018-06-30T03:20:59.144Z,1000.9
2018-06-30T03:22:00.505Z,1000.9
2018-06-30T03:23:01.900Z,1000.9
2018-06-30T03:24:03.264Z,1000.9
2018-06-30T03:25:04.626Z,1000.9
2018-06-30T03:26:05.980Z,1000.9
2018-06-30T03:27:07.355Z,1000.9
2018-06-30T03:28:08.725Z,1000.9
2018-06-30T03:29:10.087Z,1000.9
2018-06-30T03:30:11.461Z,1000.9
2018-06-30T03:31:12.812Z,1000.9
2018-06-30T03:32:14.184Z,1000.9
2018-06-30T03:33:15.545Z,1000.9
2018-06-30T03:34:16.917Z,1000.9
2018-06-30T03:35:18.281Z,1000.9
2018-06-30T03:36:19.640Z,1000.9
2018-06-30T03:37:21.011Z,1000.9
2018-06-30T03:38:22.366Z,1000.9
2018-06-30T03:39:23.740Z,1000.9
2018-06-30T03:40:25.112Z,1000.9
2018-06-30T03:41:26.476Z,1000.9
2018-06-30T03:42:27.844Z,1000.9
2018-06-30T03:43:29.201Z,1000.9
2018-06-30T03:44:30.583Z,1000.9
2018-06-30T03:45:31.941Z,1000.9
2018-06-30T03:46:33.303Z,1000.9
2018-06-30T03:47:34.672Z,1000.9
2018-06-30T03:48:36.037Z,1000.9
2018-06-30T03:49:37.410Z,1000.9
2018-06-30T03:50:38.770Z,1000.9
2018-06-30T03:51:40.156Z,1001.0
2018-06-30T03:52:41.518Z,1001.0
2018-06-30T03:53:42.881Z,1000.9
2018-06-30T03:54:44.752Z,1000.9
2018-06-30T03:55:46.122Z,1000.9
2018-06-30T03:56:47.501Z,1000.9
2018-06-30T03:57:48.862Z,1000.9
2018-06-30T03:58:50.231Z,1000.9
2018-06-30T03:59:51.598Z,1000.9
2018-06-30T04:00:52.960Z,1000.9
2018-06-30T04:01:54.322Z,1000.9
2018-06-30T04:02:55.696Z,1000.9
2018-06-30T04:03:57.069Z,1000.9
2018-06-30T04:04:58.440Z,1000.9
2018-06-30T04:05:59.810Z,1000.9
2018-06-30T04:07:01.167Z,1000.9
2018-06-30T04:08:02.532Z,1000.9
2018-06-30T04:09:03.891Z,1001.0
2018-06-30T04:10:05.266Z,1001.0
2018-06-30T04:11:06.635Z,1001.0
2018-06-30T04:12:08.010Z,1001.0
2018-06-30T04:13:09.386Z,1001.0
2018-06-30T04:14:10.748Z,1001.0
2018-06-30T04:15:12.115Z,1001.0
2018-06-30T04:16:13.470Z,1001.0
2018-06-30T04:17:14.868Z,1001.0
2018-06-30T04:18:16.239Z,1001.0
2018-06-30T04:19:17.604Z,1001.0
2018-06-30T04:20:18.967Z,1001.0
2018-06-30T04:21:20.335Z,1001.0
2018-06-30T04:22:21.707Z,1001.0
2018-06-30T04:23:23.074Z,1001.1
2018-06-30T04:24:24.437Z,1001.0
2018-06-30T04:25:25.807Z,1001.0
2018-06-30T04:26:27.180Z,1001.1
2018-06-30T04:27:28.552Z,1001.0
2018-06-30T04:28:29.917Z,1001.1
2018-06-30T04:29:31.290Z,1001.1
2018-06-30T04:30:32.664Z,1001.1
2018-06-30T04:31:34.036Z,1001.1
2018-06-30T04:32:35.402Z,1001.1
2018-06-30T04:33:36.772Z,1001.1
2018-06-30T04:34:38.135Z,1001.2
2018-06-30T04:35:39.501Z,1001.2
2018-06-30T04:36:40.870Z,1001.2
2018-06-30T04:37:42.337Z,1001.2
2018-06-30T04:38:43.736Z,1001.2
2018-06-30T04:39:45.112Z,1001.2
2018-06-30T04:40:46.495Z,1001.2
2018-06-30T04:41:47.871Z,1001.2
2018-06-30T04:42:49.236Z,1001.2
2018-06-30T04:43:50.587Z,1001.2
2018-06-30T04:44:51.962Z,1001.2
2018-06-30T04:45:53.332Z,1001.2
2018-06-30T04:46:54.748Z,1001.2
2018-06-30T04:47:56.121Z,1001.3
2018-06-30T04:48:57.492Z,1001.2
2018-06-30T04:49:58.851Z,1001.3
2018-06-30T04:51:00.265Z,1001.3
2018-06-30T04:52:01.598Z,1001.2
2018-06-30T04:53:02.958Z,1001.3
2018-06-30T04:54:04.332Z,1001.3
2018-06-30T04:55:05.700Z,1001.2
2018-06-30T04:56:07.067Z,1001.2
2018-06-30T04:57:08.440Z,1001.2
2018-06-30T04:58:09.803Z,1001.3
2018-06-30T04:59:11.170Z,1001.3
2018-06-30T05:00:12.543Z,1001.3
2018-06-30T05:01:13.948Z,1001.2
2018-06-30T05:02:15.311Z,1001.3
2018-06-30T05:03:16.681Z,1001.3
2018-06-30T05:04:18.058Z,1001.3
2018-06-30T05:05:19.428Z,1001.3
2018-06-30T05:06:20.798Z,1001.3
2018-06-30T05:07:22.167Z,1001.3
2018-06-30T05:08:23.525Z,1001.3
2018-06-30T05:09:24.892Z,1001.3
2018-06-30T05:10:26.267Z,1001.3
2018-06-30T05:11:27.633Z,1001.3
2018-06-30T05:12:28.997Z,1001.3
2018-06-30T05:13:30.358Z,1001.4
2018-06-30T05:14:31.737Z,1001.3
2018-06-30T05:15:33.113Z,1001.3
2018-06-30T05:16:34.501Z,1001.4
2018-06-30T05:17:35.865Z,1001.3
2018-06-30T05:18:37.232Z,1001.4
2018-06-30T05:19:38.586Z,1001.4
2018-06-30T05:20:39.967Z,1001.4
2018-06-30T05:21:41.341Z,1001.4
2018-06-30T05:22:42.717Z,1001.4
2018-06-30T05:23:44.111Z,1001.4
2018-06-30T05:24:45.489Z,1001.4
2018-06-30T05:25:46.867Z,1001.5
2018-06-30T05:26:48.221Z,1001.4
2018-06-30T05:27:49.596Z,1001.4
2018-06-30T05:28:50.957Z,1001.4
2018-06-30T05:29:52.335Z,1001.4
2018-06-30T05:30:53.710Z,1001.4
2018-06-30T05:31:55.076Z,1001.4
2018-06-30T05:32:56.432Z,1001.4
2018-06-30T05:33:57.790Z,1001.4
2018-06-30T05:34:59.157Z,1001.4
2018-06-30T05:36:00.527Z,1001.4
2018-06-30T05:37:01.893Z,1001.4
2018-06-30T05:38:03.289Z,1001.5
2018-06-30T05:39:04.655Z,1001.7
2018-06-30T05:40:06.016Z,1001.8
2018-06-30T05:41:07.446Z,1001.8
2018-06-30T05:42:08.721Z,1001.8
2018-06-30T05:43:10.080Z,1001.8
2018-06-30T05:44:11.464Z,1001.8
2018-06-30T05:45:12.825Z,1001.8
2018-06-30T05:46:14.210Z,1001.7
2018-06-30T05:47:15.591Z,1001.7
2018-06-30T05:48:16.967Z,1001.7
2018-06-30T05:49:18.350Z,1001.8
2018-06-30T05:50:19.726Z,1001.9
2018-06-30T05:51:21.087Z,1001.7
2018-06-30T05:52:22.471Z,1001.9
2018-06-30T05:53:23.847Z,1001.8
2018-06-30T05:54:25.212Z,1001.8
2018-06-30T05:55:26.588Z,1001.8
2018-06-30T05:56:27.961Z,1001.9
2018-06-30T05:57:29.346Z,1001.9
2018-06-30T05:58:30.713Z,1001.8
2018-06-30T05:59:32.089Z,1001.7
2018-06-30T06:00:33.467Z,1001.8
2018-06-30T06:01:34.828Z,1001.8
2018-06-30T06:02:36.216Z,1001.8
2018-06-30T06:03:37.587Z,1001.8
2018-06-30T06:04:38.969Z,1001.9
2018-06-30T06:05:40.341Z,1001.8
2018-06-30T06:06:41.717Z,1001.9
2018-06-30T06:07:43.101Z,1001.9
2018-06-30T06:08:44.493Z,1001.9
2018-06-30T06:09:45.887Z,1001.9
2018-06-30T06:10:47.228Z,1001.9
2018-06-30T06:11:48.637Z,1001.9
2018-06-30T06:12:50.015Z,1002.0
2018-06-30T06:13:51.391Z,1002.0
2018-06-30T06:14:52.762Z,1001.9
2018-06-30T06:15:54.129Z,1001.9
2018-06-30T06:16:55.506Z,1001.9
2018-06-30T06:17:56.944Z,1002.0
2018-06-30T06:18:58.333Z,1002.0
2018-06-30T06:19:59.704Z,1001.9
2018-06-30T06:21:01.081Z,1002.0
2018-06-30T06:22:02.486Z,1002.0
2018-06-30T06:23:03.868Z,1002.1
2018-06-30T06:24:05.244Z,1002.1
2018-06-30T06:25:06.618Z,1002.1
2018-06-30T06:26:08.000Z,1002.1
2018-06-30T06:27:09.389Z,1002.1
2018-06-30T06:28:10.783Z,1002.1
2018-06-30T06:29:12.162Z,1002.1
2018-06-30T06:30:13.552Z,1002.1
2018-06-30T06:31:14.916Z,1002.2
2018-06-30T06:32:16.307Z,1002.1
2018-06-30T06:33:17.714Z,1002.1
2018-06-30T06:34:19.108Z,1002.2
2018-06-30T06:35:20.484Z,1002.2
2018-06-30T06:36:21.868Z,1002.2
2018-06-30T06:37:23.242Z,1002.2
2018-06-30T06:38:24.621Z,1002.2
2018-06-30T06:39:26.008Z,1002.2
2018-06-30T06:40:27.385Z,1002.2
2018-06-30T06:41:28.773Z,1002.2
2018-06-30T06:42:30.151Z,1002.2
2018-06-30T06:43:31.544Z,1002.2
2018-06-30T06:44:32.934Z,1002.2
2018-06-30T06:45:34.324Z,1002.3
2018-06-30T06:46:35.709Z,1002.2
2018-06-30T06:47:37.096Z,1002.1
2018-06-30T06:48:38.469Z,1002.2
2018-06-30T06:49:39.857Z,1002.3
2018-06-30T06:50:41.269Z,1002.2
2018-06-30T06:51:42.674Z,1002.2
2018-06-30T06:52:44.949Z,1002.2
2018-06-30T06:53:46.332Z,1002.2
2018-06-30T06:54:47.714Z,1002.3
2018-06-30T06:55:49.108Z,1002.3
2018-06-30T06:56:50.484Z,1002.3
2018-06-30T06:57:51.869Z,1002.3
2018-06-30T06:58:53.257Z,1002.3
2018-06-30T06:59:54.644Z,1002.4
2018-06-30T07:00:56.033Z,1002.3
2018-06-30T07:01:57.418Z,1002.4
2018-06-30T07:02:58.847Z,1002.3
2018-06-30T07:04:00.195Z,1002.3
2018-06-30T07:05:01.578Z,1002.4
2018-06-30T07:06:02.978Z,1002.3
2018-06-30T07:07:04.369Z,1002.3
2018-06-30T07:08:05.742Z,1002.4
2018-06-30T07:09:07.139Z,1002.4
2018-06-30T07:10:08.527Z,1002.4
2018-06-30T07:11:09.914Z,1002.5
2018-06-30T07:12:11.299Z,1002.5
2018-06-30T07:13:12.702Z,1002.5
2018-06-30T07:14:14.102Z,1002.6
2018-06-30T07:15:15.493Z,1002.6
2018-06-30T07:16:16.872Z,1002.6
2018-06-30T07:17:18.258Z,1002.6
2018-06-30T07:18:19.698Z,1002.6
2018-06-30T07:19:21.153Z,1002.6
2018-06-30T07:20:22.502Z,1002.6
2018-06-30T07:21:23.880Z,1002.6
2018-06-30T07:22:25.268Z,1002.6
2018-06-30T07:23:26.645Z,1002.6
2018-06-30T07:24:28.036Z,1002.6
2018-06-30T07:25:29.481Z,1002.7
2018-06-30T07:26:30.819Z,1002.7
2018-06-30T07:27:32.203Z,1002.6
2018-06-30T07:28:33.598Z,1002.7
2018-06-30T07:29:34.998Z,1002.7
2018-06-30T07:30:36.390Z,1002.7
2018-06-30T07:31:37.777Z,1002.7
2018-06-30T07:32:39.214Z,1002.7
2018-06-30T07:33:40.587Z,1002.6
2018-06-30T07:34:42.023Z,1002.8
2018-06-30T07:35:43.361Z,1002.7
2018-06-30T07:36:44.754Z,1002.7
2018-06-30T07:37:46.140Z,1002.8
2018-06-30T07:38:47.666Z,1002.8
2018-06-30T07:39:49.054Z,1002.7
2018-06-30T07:40:50.455Z,1002.7
2018-06-30T07:41:51.839Z,1002.9
2018-06-30T07:42:53.220Z,1002.8
2018-06-30T07:43:54.604Z,1002.9
2018-06-30T07:44:55.990Z,1002.9
2018-06-30T07:45:57.368Z,1002.8
2018-06-30T07:46:58.746Z,1002.9
2018-06-30T07:48:00.321Z,1002.9
2018-06-30T07:49:01.563Z,1002.9
2018-06-30T07:50:02.959Z,1003.0
2018-06-30T07:51:04.343Z,1003.0
2018-06-30T07:52:05.721Z,1003.0
2018-06-30T07:53:07.153Z,1003.0
2018-06-30T07:54:08.533Z,1003.0
2018-06-30T07:55:09.914Z,1003.0
2018-06-30T07:56:11.345Z,1003.0
2018-06-30T07:57:12.710Z,1003.0
2018-06-30T07:58:14.125Z,1003.0
2018-06-30T07:59:15.530Z,1003.0
2018-06-30T08:00:16.946Z,1003.1
2018-06-30T08:01:18.322Z,1003.1
2018-06-30T08:02:19.766Z,1003.0
2018-06-30T08:03:21.110Z,1002.9
2018-06-30T08:04:22.495Z,1003.0
2018-06-30T08:05:23.880Z,1002.9
2018-06-30T08:06:25.290Z,1003.0
2018-06-30T08:07:26.743Z,1003.0
2018-06-30T08:08:28.054Z,1003.1
2018-06-30T08:09:29.435Z,1003.2
2018-06-30T08:10:30.818Z,1003.3
2018-06-30T08:11:32.219Z,1003.6
2018-06-30T08:12:33.603Z,1003.7
2018-06-30T08:13:34.984Z,1003.7
2018-06-30T08:14:36.388Z,1003.5
2018-06-30T08:15:37.768Z,1003.5
2018-06-30T08:16:39.169Z,1003.5
2018-06-30T08:17:40.569Z,1003.6
2018-06-30T08:18:41.959Z,1003.4
2018-06-30T08:19:43.349Z,1003.5
2018-06-30T08:20:44.734Z,1003.5
2018-06-30T08:21:46.133Z,1003.5
2018-06-30T08:22:47.517Z,1003.5
2018-06-30T08:23:48.916Z,1003.5
2018-06-30T08:24:50.290Z,1003.6
2018-06-30T08:25:51.688Z,1003.4
2018-06-30T08:26:53.080Z,1003.5
2018-06-30T08:27:54.475Z,1003.4
2018-06-30T08:28:55.864Z,1003.5
2018-06-30T08:29:57.251Z,1003.5
2018-06-30T08:30:58.666Z,1003.4
2018-06-30T08:32:00.052Z,1003.4
2018-06-30T08:33:01.496Z,1003.4
2018-06-30T08:34:02.833Z,1003.4
2018-06-30T08:35:04.215Z,1003.4
2018-06-30T08:36:05.619Z,1003.4
2018-06-30T08:37:07.008Z,1003.4
2018-06-30T08:38:08.398Z,1003.4
2018-06-30T08:39:09.804Z,1003.4
2018-06-30T08:40:11.218Z,1003.2
2018-06-30T08:41:12.728Z,1003.3
2018-06-30T08:42:14.135Z,1003.1
2018-06-30T08:43:15.547Z,1003.0
2018-06-30T08:44:16.971Z,1003.2
2018-06-30T08:45:18.371Z,1003.2
2018-06-30T08:46:19.769Z,1003.3
2018-06-30T08:47:21.170Z,1003.5
2018-06-30T08:48:22.563Z,1003.5
2018-06-30T08:49:23.945Z,1003.4
2018-06-30T08:50:25.373Z,1003.5
2018-06-30T08:51:26.761Z,1003.5
2018-06-30T08:52:28.159Z,1003.4
2018-06-30T08:53:29.545Z,1003.3
2018-06-30T08:54:30.934Z,1003.4
2018-06-30T08:55:32.371Z,1003.5
2018-06-30T08:56:33.712Z,1003.7
2018-06-30T08:57:35.105Z,1003.6
2018-06-30T08:58:36.498Z,1003.7
2018-06-30T08:59:37.899Z,1003.5
2018-06-30T09:00:39.359Z,1003.8
2018-06-30T09:01:40.630Z,1004.1
2018-06-30T09:02:42.021Z,1004.1
2018-06-30T09:03:43.436Z,1004.0
2018-06-30T09:04:44.806Z,1004.1
2018-06-30T09:05:46.206Z,1004.1
2018-06-30T09:06:47.601Z,1004.2
2018-06-30T09:07:48.991Z,1004.2
2018-06-30T09:08:50.394Z,1004.3
2018-06-30T09:09:51.785Z,1004.4
2018-06-30T09:10:53.182Z,1004.4
2018-06-30T09:11:54.631Z,1004.2
2018-06-30T09:12:55.984Z,1004.3
2018-06-30T09:13:57.376Z,1004.5
2018-06-30T09:14:58.769Z,1004.5
2018-06-30T09:16:00.161Z,1004.4
2018-06-30T09:17:01.550Z,1004.3
2018-06-30T09:18:02.955Z,1004.2
2018-06-30T09:19:04.340Z,1004.1
2018-06-30T09:20:05.740Z,1004.2
2018-06-30T09:21:07.128Z,1004.0
2018-06-30T09:22:08.506Z,1003.9
2018-06-30T09:23:09.936Z,1003.8
2018-06-30T09:24:11.320Z,1003.7
2018-06-30T09:25:12.655Z,1003.5
2018-06-30T09:26:14.864Z,1003.5
2018-06-30T09:27:16.259Z,1003.3
2018-06-30T09:28:17.646Z,1003.2
2018-06-30T09:29:19.044Z,1003.1
2018-06-30T09:30:20.425Z,1003.1
2018-06-30T09:31:21.830Z,1003.2
2018-06-30T09:32:23.226Z,1003.1
2018-06-30T09:33:24.614Z,1003.1
2018-06-30T09:34:26.007Z,1002.8
2018-06-30T09:35:27.401Z,1002.9
2018-06-30T09:36:28.797Z,1002.8
2018-06-30T09:37:30.180Z,1002.8
2018-06-30T09:38:31.584Z,1002.9
2018-06-30T09:39:32.969Z,1002.9
2018-06-30T09:40:34.358Z,1002.8
2018-06-30T09:41:35.765Z,1002.6
2018-06-30T09:42:37.155Z,1002.6
2018-06-30T09:43:38.571Z,1002.6
2018-06-30T09:44:40.041Z,1002.6
2018-06-30T09:45:41.329Z,1002.5
2018-06-30T09:46:42.743Z,1002.4
2018-06-30T09:47:44.144Z,1002.4
2018-06-30T09:48:45.541Z,1002.4
2018-06-30T09:49:46.935Z,1002.2
2018-06-30T09:50:48.325Z,1002.2
2018-06-30T09:51:49.704Z,1002.3
2018-06-30T09:52:51.100Z,1002.3
2018-06-30T09:53:52.496Z,1002.1
2018-06-30T09:54:53.885Z,1002.0
2018-06-30T09:55:55.274Z,1002.2
2018-06-30T09:56:56.664Z,1002.1
2018-06-30T09:57:58.064Z,1002.1
2018-06-30T09:58:59.452Z,1002.3
2018-06-30T10:00:00.855Z,1002.4
2018-06-30T10:01:02.235Z,1002.4
2018-06-30T10:02:03.635Z,1002.0
2018-06-30T10:03:05.034Z,1002.1
2018-06-30T10:04:06.435Z,1002.0
2018-06-30T10:05:07.825Z,1002.1
2018-06-30T10:06:09.239Z,1002.0
2018-06-30T10:07:10.630Z,1002.0
2018-06-30T10:08:12.020Z,1002.2
2018-06-30T10:09:13.458Z,1002.2
2018-06-30T10:10:14.821Z,1002.4
2018-06-30T10:11:16.231Z,1002.3
2018-06-30T10:12:17.622Z,1002.2
2018-06-30T10:13:19.008Z,1002.2
2018-06-30T10:14:20.401Z,1000.8
2018-06-30T10:15:21.782Z,1002.2
2018-06-30T10:16:23.181Z,1001.8
2018-06-30T10:17:25.110Z,1000.9
2018-06-30T10:18:26.481Z,1001.1
2018-06-30T10:19:27.933Z,1002.1
2018-06-30T10:20:29.272Z,1002.4
2018-06-30T10:21:30.673Z,1002.0
2018-06-30T10:22:32.055Z,1001.6
2018-06-30T10:23:33.456Z,1001.4
2018-06-30T10:24:34.862Z,1002.6
2018-06-30T10:25:36.236Z,1001.8
2018-06-30T10:26:37.625Z,1002.6
2018-06-30T10:27:39.041Z,1002.4
2018-06-30T10:28:40.460Z,1002.3
2018-06-30T10:29:41.860Z,1002.2
2018-06-30T10:30:43.245Z,1000.9
2018-06-30T10:31:44.644Z,1000.9
2018-06-30T10:32:46.035Z,1002.2
2018-06-30T10:33:47.450Z,1001.9
2018-06-30T10:34:48.836Z,1002.0
2018-06-30T10:35:50.233Z,1001.9
2018-06-30T10:36:51.620Z,1001.9
2018-06-30T10:37:53.012Z,1001.9
2018-06-30T10:38:54.418Z,1001.7
2018-06-30T10:39:55.825Z,1001.7
2018-06-30T10:40:57.215Z,1001.8
2018-06-30T10:41:58.596Z,1002.0
2018-06-30T10:42:59.999Z,1001.9
2018-06-30T10:44:01.390Z,1000.9
2018-06-30T10:45:02.794Z,1000.6
2018-06-30T10:46:04.177Z,1001.9
2018-06-30T10:47:05.573Z,1000.8
2018-06-30T10:48:06.961Z,1001.4
2018-06-30T10:49:08.349Z,1001.9
2018-06-30T10:50:09.750Z,1002.2
2018-06-30T10:51:11.147Z,1002.0
2018-06-30T10:52:12.540Z,1001.5
2018-06-30T10:53:13.950Z,1001.5
2018-06-30T10:54:15.339Z,1002.1
2018-06-30T10:55:16.726Z,1001.9
2018-06-30T10:56:18.121Z,1001.8
2018-06-30T10:57:19.526Z,1000.6
2018-06-30T10:58:20.912Z,1000.6
2018-06-30T10:59:22.310Z,1000.7
2018-06-30T11:00:23.778Z,1002.2
2018-06-30T11:01:25.062Z,1001.2
2018-06-30T11:02:26.463Z,1000.8
2018-06-30T11:03:27.841Z,1001.7
2018-06-30T11:04:29.237Z,1002.1
2018-06-30T11:05:30.622Z,1002.0
2018-06-30T11:06:32.018Z,1002.1
2018-06-30T11:07:33.422Z,1001.8
2018-06-30T11:08:34.822Z,1001.6
2018-06-30T11:09:36.212Z,1001.5
2018-06-30T11:10:37.615Z,1001.4
2018-06-30T11:11:39.006Z,1000.8
2018-06-30T11:12:40.399Z,1000.4
2018-06-30T11:13:41.786Z,1000.4
2018-06-30T11:14:43.176Z,1000.6
2018-06-30T11:15:44.567Z,1000.7
2018-06-30T11:16:46.163Z,1001.9
2018-06-30T11:17:47.526Z,1000.5
2018-06-30T11:18:48.940Z,1000.5
2018-06-30T11:19:50.413Z,1000.8
2018-06-30T11:20:51.800Z,1001.0
2018-06-30T11:21:53.194Z,1001.1
2018-06-30T11:22:54.576Z,1001.1
2018-06-30T11:23:55.968Z,1001.1
2018-06-30T11:24:57.356Z,1002.5
2018-06-30T11:25:58.737Z,1000.8
2018-06-30T11:27:00.141Z,1000.9
2018-06-30T11:28:01.596Z,1002.2
2018-06-30T11:29:03.055Z,1000.8
2018-06-30T11:30:04.447Z,1000.9
2018-06-30T11:31:05.832Z,1000.7
2018-06-30T11:32:07.235Z,1000.8
2018-06-30T11:33:08.620Z,1001.0
2018-06-30T11:34:10.003Z,1001.0
2018-06-30T11:35:11.392Z,1001.5
2018-06-30T11:36:12.776Z,1000.9
2018-06-30T11:37:14.202Z,1001.1
2018-06-30T11:38:15.578Z,1001.1
2018-06-30T11:39:16.970Z,1001.0
2018-06-30T11:40:19.635Z,1001.1
2018-06-30T11:41:21.036Z,1002.3
2018-06-30T11:42:22.423Z,1002.1
2018-06-30T11:43:23.820Z,1001.8
2018-06-30T11:44:25.226Z,1001.1
2018-06-30T11:45:26.607Z,1001.4
2018-06-30T11:46:27.995Z,1001.1
2018-06-30T11:47:29.384Z,1001.8
2018-06-30T11:48:30.766Z,1000.5
2018-06-30T11:49:32.178Z,1000.5
2018-06-30T11:50:33.589Z,1002.0
2018-06-30T11:51:35.021Z,1001.8
2018-06-30T11:52:36.451Z,1001.6
2018-06-30T11:53:37.850Z,1001.7
2018-06-30T11:54:39.272Z,1001.5
2018-06-30T11:55:40.800Z,1001.6
2018-06-30T11:56:42.217Z,1001.6
2018-06-30T11:57:43.677Z,1001.6
2018-06-30T11:58:45.148Z,1001.3
2018-06-30T11:59:46.555Z,1001.4
2018-06-30T12:00:47.947Z,1001.4
2018-06-30T12:01:49.577Z,1000.9
2018-06-30T12:02:50.966Z,1000.5
2018-06-30T12:03:52.352Z,1000.9
2018-06-30T12:04:53.736Z,1001.5
2018-06-30T12:05:55.151Z,1000.7
2018-06-30T12:06:56.532Z,1001.2
2018-06-30T12:07:57.942Z,1001.2
2018-06-30T12:08:59.346Z,1001.7
2018-06-30T12:10:00.732Z,1001.7
2018-06-30T12:11:02.145Z,1001.4
2018-06-30T12:12:03.548Z,1001.2
2018-06-30T12:13:04.957Z,1001.3
2018-06-30T12:14:06.355Z,1000.0
2018-06-30T12:15:07.757Z,1001.1
2018-06-30T12:16:09.146Z,1001.3
2018-06-30T12:17:10.549Z,1001.2
2018-06-30T12:18:11.947Z,1001.2
2018-06-30T12:19:13.345Z,1001.1
2018-06-30T12:20:14.744Z,1001.2
2018-06-30T12:21:16.142Z,1001.1
2018-06-30T12:22:17.531Z,1001.1
2018-06-30T12:23:18.928Z,1000.9
2018-06-30T12:24:20.320Z,1001.0
2018-06-30T12:25:22.495Z,1001.1
2018-06-30T12:26:23.894Z,1001.2
2018-06-30T12:27:25.815Z,1001.1
2018-06-30T12:28:27.211Z,1001.0
2018-06-30T12:29:28.604Z,1001.0
2018-06-30T12:30:30.598Z,1001.1
2018-06-30T12:31:31.989Z,1001.1
2018-06-30T12:32:33.402Z,1001.2
2018-06-30T12:33:34.788Z,999.8
2018-06-30T12:34:36.196Z,1000.4
2018-06-30T12:35:37.596Z,1000.0
2018-06-30T12:36:38.984Z,1000.3
2018-06-30T12:37:40.373Z,1000.6
2018-06-30T12:38:41.776Z,1001.3
2018-06-30T12:39:43.997Z,1001.2
2018-06-30T12:40:44.553Z,1000.9
2018-06-30T12:41:46.827Z,1000.6
2018-06-30T12:42:48.232Z,999.8
2018-06-30T12:43:49.632Z,1001.3
2018-06-30T12:44:53.475Z,1001.0
2018-06-30T12:45:54.857Z,1000.1